sensor_id;sensor_type;location;lat;lon;timestamp;P1;durP1;ratioP1;P2;durP2;ratioP2
59728;SDS011;45588;51.598;5.618;2023-03-05T00:01:08;11.88;;;2.60;;
59728;SDS011;45588;51.598;5.618;2023-03-05T00:03:33;12.30;;;3.53;;
59728;SDS011;45588;51.598;5.618;2023-03-05T00:05:59;14.63;;;3.85;;
59728;SDS011;45588;51.598;5.618;2023-03-05T00:08:24;10.43;;;4.07;;
59728;SDS011;45588;51.598;5.618;2023-03-05T00:10:59;15.20;;;3.70;;
59728;SDS011;45588;51.598;5.618;2023-03-05T00:13:24;25.77;;;6.60;;
59728;SDS011;45588;51.598;5.618;2023-03-05T00:15:49;22.20;;;6.78;;
59728;SDS011;45588;51.598;5.618;2023-03-05T00:18:15;12.48;;;3.20;;
59728;SDS011;45588;51.598;5.618;2023-03-05T00:20:40;8.25;;;2.40;;
59728;SDS011;45588;51.598;5.618;2023-03-05T00:23:05;12.95;;;3.35;;
59728;SDS011;45588;51.598;5.618;2023-03-05T00:25:30;14.63;;;3.83;;
59728;SDS011;45588;51.598;5.618;2023-03-05T00:27:55;12.13;;;3.38;;
59728;SDS011;45588;51.598;5.618;2023-03-05T00:30:21;11.70;;;2.77;;
59728;SDS011;45588;51.598;5.618;2023-03-05T00:32:46;10.40;;;3.08;;
59728;SDS011;45588;51.598;5.618;2023-03-05T00:35:11;10.10;;;3.23;;
59728;SDS011;45588;51.598;5.618;2023-03-05T00:37:36;19.35;;;3.70;;
59728;SDS011;45588;51.598;5.618;2023-03-05T00:40:02;13.52;;;4.35;;
59728;SDS011;45588;51.598;5.618;2023-03-05T00:42:27;17.75;;;3.70;;
59728;SDS011;45588;51.598;5.618;2023-03-05T00:44:52;11.93;;;3.10;;
59728;SDS011;45588;51.598;5.618;2023-03-05T00:47:17;7.07;;;4.07;;
59728;SDS011;45588;51.598;5.618;2023-03-05T00:49:43;14.90;;;3.10;;
59728;SDS011;45588;51.598;5.618;2023-03-05T00:52:08;18.45;;;6.05;;
59728;SDS011;45588;51.598;5.618;2023-03-05T00:54:33;10.75;;;3.08;;
59728;SDS011;45588;51.598;5.618;2023-03-05T00:56:58;14.10;;;2.88;;
59728;SDS011;45588;51.598;5.618;2023-03-05T00:59:23;13.83;;;3.37;;
59728;SDS011;45588;51.598;5.618;2023-03-05T01:01:49;15.95;;;3.75;;
59728;SDS011;45588;51.598;5.618;2023-03-05T01:04:14;10.55;;;3.78;;
59728;SDS011;45588;51.598;5.618;2023-03-05T01:06:39;17.77;;;6.10;;
59728;SDS011;45588;51.598;5.618;2023-03-05T01:09:08;11.90;;;3.08;;
59728;SDS011;45588;51.598;5.618;2023-03-05T01:11:34;18.73;;;4.40;;
59728;SDS011;45588;51.598;5.618;2023-03-05T01:13:59;12.95;;;3.47;;
59728;SDS011;45588;51.598;5.618;2023-03-05T01:16:24;14.32;;;4.05;;
59728;SDS011;45588;51.598;5.618;2023-03-05T01:18:49;11.75;;;3.53;;
59728;SDS011;45588;51.598;5.618;2023-03-05T01:21:14;9.68;;;2.90;;
59728;SDS011;45588;51.598;5.618;2023-03-05T01:23:40;11.07;;;3.17;;
59728;SDS011;45588;51.598;5.618;2023-03-05T01:26:05;14.68;;;3.83;;
59728;SDS011;45588;51.598;5.618;2023-03-05T01:28:30;11.05;;;3.25;;
59728;SDS011;45588;51.598;5.618;2023-03-05T01:30:56;14.38;;;3.78;;
59728;SDS011;45588;51.598;5.618;2023-03-05T01:33:21;18.25;;;3.60;;
59728;SDS011;45588;51.598;5.618;2023-03-05T01:35:47;15.55;;;3.33;;
59728;SDS011;45588;51.598;5.618;2023-03-05T01:38:13;13.32;;;3.42;;
59728;SDS011;45588;51.598;5.618;2023-03-05T01:40:38;11.07;;;4.07;;
59728;SDS011;45588;51.598;5.618;2023-03-05T01:45:34;9.57;;;3.15;;
59728;SDS011;45588;51.598;5.618;2023-03-05T01:47:59;7.25;;;3.45;;
59728;SDS011;45588;51.598;5.618;2023-03-05T01:50:25;13.40;;;3.67;;
59728;SDS011;45588;51.598;5.618;2023-03-05T01:52:58;19.35;;;3.50;;
59728;SDS011;45588;51.598;5.618;2023-03-05T01:55:25;10.55;;;3.63;;
59728;SDS011;45588;51.598;5.618;2023-03-05T01:57:52;17.90;;;3.55;;
59728;SDS011;45588;51.598;5.618;2023-03-05T02:00:21;14.45;;;3.38;;
59728;SDS011;45588;51.598;5.618;2023-03-05T02:02:49;14.77;;;3.58;;
59728;SDS011;45588;51.598;5.618;2023-03-05T02:05:17;24.50;;;5.00;;
59728;SDS011;45588;51.598;5.618;2023-03-05T02:07:42;15.15;;;3.63;;
59728;SDS011;45588;51.598;5.618;2023-03-05T02:10:18;15.38;;;3.72;;
59728;SDS011;45588;51.598;5.618;2023-03-05T02:12:45;11.93;;;4.00;;
59728;SDS011;45588;51.598;5.618;2023-03-05T02:15:11;25.42;;;7.30;;
59728;SDS011;45588;51.598;5.618;2023-03-05T02:17:36;13.98;;;3.85;;
59728;SDS011;45588;51.598;5.618;2023-03-05T02:20:06;22.15;;;7.45;;
59728;SDS011;45588;51.598;5.618;2023-03-05T02:22:32;13.13;;;4.33;;
59728;SDS011;45588;51.598;5.618;2023-03-05T02:24:57;10.63;;;3.15;;
59728;SDS011;45588;51.598;5.618;2023-03-05T02:27:24;25.10;;;7.90;;
59728;SDS011;45588;51.598;5.618;2023-03-05T02:29:58;14.23;;;4.80;;
59728;SDS011;45588;51.598;5.618;2023-03-05T02:32:23;21.20;;;3.97;;
59728;SDS011;45588;51.598;5.618;2023-03-05T02:34:48;14.30;;;4.22;;
59728;SDS011;45588;51.598;5.618;2023-03-05T02:37:14;14.77;;;4.63;;
59728;SDS011;45588;51.598;5.618;2023-03-05T02:39:39;13.80;;;3.92;;
59728;SDS011;45588;51.598;5.618;2023-03-05T02:42:04;23.23;;;8.60;;
59728;SDS011;45588;51.598;5.618;2023-03-05T02:44:29;20.23;;;4.53;;
59728;SDS011;45588;51.598;5.618;2023-03-05T02:46:55;13.18;;;3.70;;
59728;SDS011;45588;51.598;5.618;2023-03-05T02:49:20;16.08;;;3.67;;
59728;SDS011;45588;51.598;5.618;2023-03-05T02:51:45;11.70;;;3.55;;
59728;SDS011;45588;51.598;5.618;2023-03-05T02:54:11;14.88;;;3.63;;
59728;SDS011;45588;51.598;5.618;2023-03-05T02:56:36;16.17;;;4.95;;
59728;SDS011;45588;51.598;5.618;2023-03-05T02:59:02;23.17;;;7.90;;
59728;SDS011;45588;51.598;5.618;2023-03-05T03:01:27;14.93;;;4.07;;
59728;SDS011;45588;51.598;5.618;2023-03-05T03:03:53;12.07;;;4.20;;
59728;SDS011;45588;51.598;5.618;2023-03-05T03:06:18;14.48;;;4.78;;
59728;SDS011;45588;51.598;5.618;2023-03-05T03:08:44;10.80;;;3.65;;
59728;SDS011;45588;51.598;5.618;2023-03-05T03:11:09;20.95;;;5.38;;
59728;SDS011;45588;51.598;5.618;2023-03-05T03:13:36;11.57;;;3.95;;
59728;SDS011;45588;51.598;5.618;2023-03-05T03:16:05;12.63;;;3.97;;
59728;SDS011;45588;51.598;5.618;2023-03-05T03:18:31;12.15;;;3.92;;
59728;SDS011;45588;51.598;5.618;2023-03-05T03:20:56;20.92;;;4.18;;
59728;SDS011;45588;51.598;5.618;2023-03-05T03:23:21;16.77;;;4.35;;
59728;SDS011;45588;51.598;5.618;2023-03-05T03:25:46;9.47;;;3.43;;
59728;SDS011;45588;51.598;5.618;2023-03-05T03:28:12;13.73;;;3.50;;
59728;SDS011;45588;51.598;5.618;2023-03-05T03:30:37;9.45;;;3.05;;
59728;SDS011;45588;51.598;5.618;2023-03-05T03:33:02;13.38;;;4.05;;
59728;SDS011;45588;51.598;5.618;2023-03-05T03:35:27;12.13;;;3.22;;
59728;SDS011;45588;51.598;5.618;2023-03-05T03:37:52;8.25;;;3.50;;
59728;SDS011;45588;51.598;5.618;2023-03-05T03:40:18;14.57;;;3.33;;
59728;SDS011;45588;51.598;5.618;2023-03-05T03:42:43;15.88;;;4.25;;
59728;SDS011;45588;51.598;5.618;2023-03-05T03:45:08;10.27;;;2.90;;
59728;SDS011;45588;51.598;5.618;2023-03-05T03:47:33;11.93;;;3.05;;
59728;SDS011;45588;51.598;5.618;2023-03-05T03:49:58;10.80;;;3.58;;
59728;SDS011;45588;51.598;5.618;2023-03-05T03:52:24;20.20;;;6.35;;
59728;SDS011;45588;51.598;5.618;2023-03-05T03:54:50;12.15;;;3.40;;
59728;SDS011;45588;51.598;5.618;2023-03-05T03:57:17;7.47;;;3.28;;
59728;SDS011;45588;51.598;5.618;2023-03-05T03:59:42;9.68;;;2.53;;
59728;SDS011;45588;51.598;5.618;2023-03-05T04:02:09;12.38;;;3.22;;
59728;SDS011;45588;51.598;5.618;2023-03-05T04:04:34;9.70;;;3.55;;
59728;SDS011;45588;51.598;5.618;2023-03-05T04:06:59;13.00;;;3.87;;
59728;SDS011;45588;51.598;5.618;2023-03-05T04:09:24;20.52;;;7.15;;
59728;SDS011;45588;51.598;5.618;2023-03-05T04:11:50;9.33;;;3.53;;
59728;SDS011;45588;51.598;5.618;2023-03-05T04:14:15;16.95;;;3.72;;
59728;SDS011;45588;51.598;5.618;2023-03-05T04:16:40;14.60;;;3.47;;
59728;SDS011;45588;51.598;5.618;2023-03-05T04:19:05;8.27;;;3.38;;
59728;SDS011;45588;51.598;5.618;2023-03-05T04:21:30;9.07;;;3.20;;
59728;SDS011;45588;51.598;5.618;2023-03-05T04:23:56;12.50;;;3.08;;
59728;SDS011;45588;51.598;5.618;2023-03-05T04:26:21;17.20;;;4.13;;
59728;SDS011;45588;51.598;5.618;2023-03-05T04:28:46;15.10;;;4.00;;
59728;SDS011;45588;51.598;5.618;2023-03-05T04:31:12;15.07;;;3.45;;
59728;SDS011;45588;51.598;5.618;2023-03-05T04:33:37;17.27;;;6.63;;
59728;SDS011;45588;51.598;5.618;2023-03-05T04:36:02;12.05;;;3.83;;
59728;SDS011;45588;51.598;5.618;2023-03-05T04:38:27;11.93;;;3.83;;
59728;SDS011;45588;51.598;5.618;2023-03-05T04:40:53;10.18;;;4.07;;
59728;SDS011;45588;51.598;5.618;2023-03-05T04:43:18;7.43;;;3.65;;
59728;SDS011;45588;51.598;5.618;2023-03-05T04:45:43;11.10;;;4.28;;
59728;SDS011;45588;51.598;5.618;2023-03-05T04:48:09;9.60;;;3.35;;
59728;SDS011;45588;51.598;5.618;2023-03-05T04:50:34;16.05;;;5.80;;
59728;SDS011;45588;51.598;5.618;2023-03-05T04:53:00;10.20;;;4.82;;
59728;SDS011;45588;51.598;5.618;2023-03-05T04:55:25;7.90;;;3.88;;
59728;SDS011;45588;51.598;5.618;2023-03-05T04:57:51;14.40;;;4.95;;
59728;SDS011;45588;51.598;5.618;2023-03-05T05:00:16;18.88;;;3.85;;
59728;SDS011;45588;51.598;5.618;2023-03-05T05:02:45;16.70;;;4.78;;
59728;SDS011;45588;51.598;5.618;2023-03-05T05:05:11;8.10;;;2.95;;
59728;SDS011;45588;51.598;5.618;2023-03-05T05:07:37;13.77;;;5.15;;
59728;SDS011;45588;51.598;5.618;2023-03-05T05:10:02;13.50;;;3.80;;
59728;SDS011;45588;51.598;5.618;2023-03-05T05:12:28;10.68;;;3.75;;
59728;SDS011;45588;51.598;5.618;2023-03-05T05:14:54;10.45;;;3.50;;
59728;SDS011;45588;51.598;5.618;2023-03-05T05:17:19;13.68;;;3.53;;
59728;SDS011;45588;51.598;5.618;2023-03-05T05:19:45;8.80;;;3.28;;
59728;SDS011;45588;51.598;5.618;2023-03-05T05:22:10;10.60;;;4.15;;
59728;SDS011;45588;51.598;5.618;2023-03-05T05:24:35;7.03;;;3.63;;
59728;SDS011;45588;51.598;5.618;2023-03-05T05:27:00;11.00;;;3.25;;
59728;SDS011;45588;51.598;5.618;2023-03-05T05:29:25;10.37;;;3.70;;
59728;SDS011;45588;51.598;5.618;2023-03-05T05:31:50;13.23;;;3.33;;
59728;SDS011;45588;51.598;5.618;2023-03-05T05:34:17;19.13;;;5.13;;
59728;SDS011;45588;51.598;5.618;2023-03-05T05:36:43;13.45;;;4.90;;
59728;SDS011;45588;51.598;5.618;2023-03-05T05:39:08;11.77;;;4.00;;
59728;SDS011;45588;51.598;5.618;2023-03-05T05:41:33;16.40;;;4.82;;
59728;SDS011;45588;51.598;5.618;2023-03-05T05:43:58;24.25;;;10.75;;
59728;SDS011;45588;51.598;5.618;2023-03-05T05:46:24;16.67;;;6.30;;
59728;SDS011;45588;51.598;5.618;2023-03-05T05:48:49;12.05;;;5.10;;
59728;SDS011;45588;51.598;5.618;2023-03-05T05:51:16;13.82;;;6.22;;
59728;SDS011;45588;51.598;5.618;2023-03-05T05:53:41;16.40;;;8.02;;
59728;SDS011;45588;51.598;5.618;2023-03-05T05:56:07;16.42;;;5.60;;
59728;SDS011;45588;51.598;5.618;2023-03-05T05:58:33;24.17;;;13.32;;
59728;SDS011;45588;51.598;5.618;2023-03-05T06:00:58;21.60;;;8.63;;
59728;SDS011;45588;51.598;5.618;2023-03-05T06:03:24;16.17;;;8.05;;
59728;SDS011;45588;51.598;5.618;2023-03-05T06:05:49;22.70;;;8.25;;
59728;SDS011;45588;51.598;5.618;2023-03-05T06:08:16;22.15;;;8.40;;
59728;SDS011;45588;51.598;5.618;2023-03-05T06:10:41;26.70;;;15.68;;
59728;SDS011;45588;51.598;5.618;2023-03-05T06:13:06;14.43;;;7.53;;
59728;SDS011;45588;51.598;5.618;2023-03-05T06:15:31;17.73;;;8.85;;
59728;SDS011;45588;51.598;5.618;2023-03-05T06:17:57;19.67;;;8.27;;
59728;SDS011;45588;51.598;5.618;2023-03-05T06:20:23;19.20;;;8.45;;
59728;SDS011;45588;51.598;5.618;2023-03-05T06:22:48;25.58;;;9.65;;
59728;SDS011;45588;51.598;5.618;2023-03-05T06:25:13;35.83;;;17.98;;
59728;SDS011;45588;51.598;5.618;2023-03-05T06:27:38;24.67;;;10.48;;
59728;SDS011;45588;51.598;5.618;2023-03-05T06:30:04;26.23;;;9.20;;
59728;SDS011;45588;51.598;5.618;2023-03-05T06:32:30;19.65;;;9.63;;
59728;SDS011;45588;51.598;5.618;2023-03-05T06:34:55;16.48;;;9.20;;
59728;SDS011;45588;51.598;5.618;2023-03-05T06:37:20;15.65;;;9.40;;
59728;SDS011;45588;51.598;5.618;2023-03-05T06:39:45;17.17;;;9.40;;
59728;SDS011;45588;51.598;5.618;2023-03-05T06:42:11;19.20;;;8.50;;
59728;SDS011;45588;51.598;5.618;2023-03-05T06:44:37;18.80;;;9.80;;
59728;SDS011;45588;51.598;5.618;2023-03-05T06:47:03;24.55;;;9.55;;
59728;SDS011;45588;51.598;5.618;2023-03-05T06:49:28;20.55;;;9.32;;
59728;SDS011;45588;51.598;5.618;2023-03-05T06:51:54;16.73;;;9.98;;
59728;SDS011;45588;51.598;5.618;2023-03-05T06:54:19;17.55;;;9.45;;
59728;SDS011;45588;51.598;5.618;2023-03-05T06:56:45;21.17;;;9.35;;
59728;SDS011;45588;51.598;5.618;2023-03-05T06:59:10;26.83;;;9.73;;
59728;SDS011;45588;51.598;5.618;2023-03-05T07:01:36;19.73;;;9.93;;
59728;SDS011;45588;51.598;5.618;2023-03-05T07:04:01;21.67;;;9.65;;
59728;SDS011;45588;51.598;5.618;2023-03-05T07:06:28;16.42;;;10.55;;
59728;SDS011;45588;51.598;5.618;2023-03-05T07:08:55;19.73;;;10.32;;
59728;SDS011;45588;51.598;5.618;2023-03-05T07:11:21;32.67;;;21.38;;
59728;SDS011;45588;51.598;5.618;2023-03-05T07:13:46;24.80;;;12.18;;
59728;SDS011;45588;51.598;5.618;2023-03-05T07:16:15;22.10;;;10.90;;
59728;SDS011;45588;51.598;5.618;2023-03-05T07:18:41;18.98;;;10.57;;
59728;SDS011;45588;51.598;5.618;2023-03-05T07:21:06;22.77;;;11.43;;
59728;SDS011;45588;51.598;5.618;2023-03-05T07:23:32;27.65;;;11.45;;
59728;SDS011;45588;51.598;5.618;2023-03-05T07:25:59;22.70;;;10.98;;
59728;SDS011;45588;51.598;5.618;2023-03-05T07:28:25;22.45;;;11.73;;
59728;SDS011;45588;51.598;5.618;2023-03-05T07:30:55;21.20;;;11.40;;
59728;SDS011;45588;51.598;5.618;2023-03-05T07:33:20;26.00;;;12.23;;
59728;SDS011;45588;51.598;5.618;2023-03-05T07:35:45;19.53;;;10.57;;
59728;SDS011;45588;51.598;5.618;2023-03-05T07:38:10;32.77;;;21.43;;
59728;SDS011;45588;51.598;5.618;2023-03-05T07:40:35;21.30;;;11.88;;
59728;SDS011;45588;51.598;5.618;2023-03-05T07:43:01;22.38;;;11.40;;
59728;SDS011;45588;51.598;5.618;2023-03-05T07:45:26;20.60;;;11.50;;
59728;SDS011;45588;51.598;5.618;2023-03-05T07:47:51;26.15;;;13.50;;
59728;SDS011;45588;51.598;5.618;2023-03-05T07:50:16;22.25;;;11.90;;
59728;SDS011;45588;51.598;5.618;2023-03-05T07:52:41;20.98;;;10.77;;
59728;SDS011;45588;51.598;5.618;2023-03-05T07:55:07;21.15;;;12.68;;
59728;SDS011;45588;51.598;5.618;2023-03-05T07:57:32;23.10;;;12.02;;
59728;SDS011;45588;51.598;5.618;2023-03-05T07:59:59;21.45;;;11.82;;
59728;SDS011;45588;51.598;5.618;2023-03-05T08:02:24;24.40;;;10.90;;
59728;SDS011;45588;51.598;5.618;2023-03-05T08:04:49;17.92;;;9.50;;
59728;SDS011;45588;51.598;5.618;2023-03-05T08:07:15;19.37;;;11.33;;
59728;SDS011;45588;51.598;5.618;2023-03-05T08:09:40;16.52;;;10.70;;
59728;SDS011;45588;51.598;5.618;2023-03-05T08:12:06;24.67;;;19.30;;
59728;SDS011;45588;51.598;5.618;2023-03-05T08:14:33;18.20;;;9.75;;
59728;SDS011;45588;51.598;5.618;2023-03-05T08:16:59;15.30;;;9.77;;
59728;SDS011;45588;51.598;5.618;2023-03-05T08:19:24;14.45;;;9.77;;
59728;SDS011;45588;51.598;5.618;2023-03-05T08:21:49;15.07;;;9.00;;
59728;SDS011;45588;51.598;5.618;2023-03-05T08:24:14;19.02;;;7.95;;
59728;SDS011;45588;51.598;5.618;2023-03-05T08:26:39;21.35;;;15.52;;
59728;SDS011;45588;51.598;5.618;2023-03-05T08:29:06;13.55;;;7.60;;
59728;SDS011;45588;51.598;5.618;2023-03-05T08:31:31;22.20;;;17.80;;
59728;SDS011;45588;51.598;5.618;2023-03-05T08:33:57;14.80;;;9.32;;
59728;SDS011;45588;51.598;5.618;2023-03-05T08:36:23;15.35;;;8.85;;
59728;SDS011;45588;51.598;5.618;2023-03-05T08:38:48;18.67;;;9.30;;
59728;SDS011;45588;51.598;5.618;2023-03-05T08:41:15;12.80;;;8.90;;
59728;SDS011;45588;51.598;5.618;2023-03-05T08:43:40;16.20;;;9.23;;
59728;SDS011;45588;51.598;5.618;2023-03-05T08:46:05;17.83;;;7.45;;
59728;SDS011;45588;51.598;5.618;2023-03-05T08:48:31;22.40;;;13.75;;
59728;SDS011;45588;51.598;5.618;2023-03-05T08:50:56;15.82;;;7.97;;
59728;SDS011;45588;51.598;5.618;2023-03-05T08:53:22;10.57;;;6.90;;
59728;SDS011;45588;51.598;5.618;2023-03-05T08:55:56;21.60;;;12.88;;
59728;SDS011;45588;51.598;5.618;2023-03-05T08:58:22;14.13;;;6.57;;
59728;SDS011;45588;51.598;5.618;2023-03-05T09:00:47;12.50;;;5.38;;
59728;SDS011;45588;51.598;5.618;2023-03-05T09:03:12;11.23;;;5.95;;
59728;SDS011;45588;51.598;5.618;2023-03-05T09:05:38;9.65;;;5.28;;
59728;SDS011;45588;51.598;5.618;2023-03-05T09:08:03;9.97;;;5.10;;
59728;SDS011;45588;51.598;5.618;2023-03-05T09:10:28;12.88;;;8.80;;
59728;SDS011;45588;51.598;5.618;2023-03-05T09:12:53;9.85;;;5.63;;
59728;SDS011;45588;51.598;5.618;2023-03-05T09:15:20;12.27;;;5.38;;
59728;SDS011;45588;51.598;5.618;2023-03-05T09:17:46;12.48;;;7.25;;
59728;SDS011;45588;51.598;5.618;2023-03-05T09:20:11;7.82;;;4.32;;
59728;SDS011;45588;51.598;5.618;2023-03-05T09:22:37;9.27;;;6.68;;
59728;SDS011;45588;51.598;5.618;2023-03-05T09:25:02;7.33;;;4.23;;
59728;SDS011;45588;51.598;5.618;2023-03-05T09:27:27;7.95;;;3.58;;
59728;SDS011;45588;51.598;5.618;2023-03-05T09:29:53;10.38;;;6.20;;
59728;SDS011;45588;51.598;5.618;2023-03-05T09:32:19;6.93;;;4.07;;
59728;SDS011;45588;51.598;5.618;2023-03-05T09:34:44;6.80;;;4.25;;
59728;SDS011;45588;51.598;5.618;2023-03-05T09:37:09;13.43;;;5.53;;
59728;SDS011;45588;51.598;5.618;2023-03-05T09:39:35;6.70;;;5.60;;
59728;SDS011;45588;51.598;5.618;2023-03-05T09:44:36;9.40;;;5.82;;
59728;SDS011;45588;51.598;5.618;2023-03-05T09:50:00;6.97;;;2.75;;
59728;SDS011;45588;51.598;5.618;2023-03-05T09:52:38;6.97;;;3.35;;
59728;SDS011;45588;51.598;5.618;2023-03-05T09:55:08;6.75;;;3.55;;
59728;SDS011;45588;51.598;5.618;2023-03-05T09:57:38;6.95;;;3.00;;
59728;SDS011;45588;51.598;5.618;2023-03-05T10:00:05;7.78;;;2.10;;
59728;SDS011;45588;51.598;5.618;2023-03-05T10:02:35;7.57;;;2.80;;
59728;SDS011;45588;51.598;5.618;2023-03-05T10:10:13;14.97;;;6.90;;
59728;SDS011;45588;51.598;5.618;2023-03-05T10:12:43;6.28;;;3.95;;
59728;SDS011;45588;51.598;5.618;2023-03-05T10:25:23;7.63;;;3.38;;
59728;SDS011;45588;51.598;5.618;2023-03-05T10:27:51;10.48;;;3.97;;
59728;SDS011;45588;51.598;5.618;2023-03-05T10:37:54;3.35;;;1.67;;
59728;SDS011;45588;51.598;5.618;2023-03-05T10:45:32;4.82;;;1.83;;
59728;SDS011;45588;51.598;5.618;2023-03-05T10:50:49;5.82;;;3.05;;
59728;SDS011;45588;51.598;5.618;2023-03-05T10:53:18;3.13;;;1.92;;
59728;SDS011;45588;51.598;5.618;2023-03-05T10:58:13;3.25;;;2.75;;
59728;SDS011;45588;51.598;5.618;2023-03-05T11:00:38;9.25;;;2.85;;
59728;SDS011;45588;51.598;5.618;2023-03-05T11:03:05;4.15;;;3.13;;
59728;SDS011;45588;51.598;5.618;2023-03-05T11:07:56;7.73;;;3.80;;
59728;SDS011;45588;51.598;5.618;2023-03-05T11:10:24;7.55;;;5.97;;
59728;SDS011;45588;51.598;5.618;2023-03-05T11:12:49;9.52;;;6.85;;
59728;SDS011;45588;51.598;5.618;2023-03-05T11:17:44;8.32;;;6.50;;
59728;SDS011;45588;51.598;5.618;2023-03-05T11:23:05;11.65;;;4.00;;
59728;SDS011;45588;51.598;5.618;2023-03-05T11:25:31;10.57;;;6.70;;
59728;SDS011;45588;51.598;5.618;2023-03-05T11:27:57;7.15;;;3.70;;
59728;SDS011;45588;51.598;5.618;2023-03-05T11:30:28;8.50;;;4.20;;
59728;SDS011;45588;51.598;5.618;2023-03-05T11:33:16;4.75;;;3.55;;
59728;SDS011;45588;51.598;5.618;2023-03-05T11:35:40;5.35;;;3.20;;
59728;SDS011;45588;51.598;5.618;2023-03-05T11:38:14;4.10;;;3.40;;
59728;SDS011;45588;51.598;5.618;2023-03-05T11:40:39;8.23;;;4.28;;
59728;SDS011;45588;51.598;5.618;2023-03-05T11:43:04;7.68;;;4.25;;
59728;SDS011;45588;51.598;5.618;2023-03-05T11:45:30;9.95;;;6.47;;
59728;SDS011;45588;51.598;5.618;2023-03-05T11:47:59;5.35;;;3.00;;
59728;SDS011;45588;51.598;5.618;2023-03-05T11:50:28;11.10;;;4.32;;
59728;SDS011;45588;51.598;5.618;2023-03-05T11:52:56;4.50;;;3.42;;
59728;SDS011;45588;51.598;5.618;2023-03-05T12:00:32;9.95;;;4.25;;
59728;SDS011;45588;51.598;5.618;2023-03-05T12:02:59;4.68;;;3.05;;
59728;SDS011;45588;51.598;5.618;2023-03-05T12:05:26;2.72;;;2.08;;
59728;SDS011;45588;51.598;5.618;2023-03-05T12:07:53;6.93;;;3.20;;
59728;SDS011;45588;51.598;5.618;2023-03-05T12:10:20;6.60;;;2.28;;
59728;SDS011;45588;51.598;5.618;2023-03-05T12:20:53;4.22;;;2.03;;
59728;SDS011;45588;51.598;5.618;2023-03-05T12:23:21;4.35;;;2.28;;
59728;SDS011;45588;51.598;5.618;2023-03-05T12:25:50;3.88;;;1.88;;
59728;SDS011;45588;51.598;5.618;2023-03-05T12:28:52;4.72;;;2.00;;
59728;SDS011;45588;51.598;5.618;2023-03-05T12:38:51;2.08;;;1.63;;
59728;SDS011;45588;51.598;5.618;2023-03-05T12:46:32;3.33;;;1.48;;
59728;SDS011;45588;51.598;5.618;2023-03-05T12:48:59;4.53;;;2.80;;
59728;SDS011;45588;51.598;5.618;2023-03-05T12:51:28;3.38;;;2.10;;
59728;SDS011;45588;51.598;5.618;2023-03-05T12:53:55;2.50;;;2.10;;
59728;SDS011;45588;51.598;5.618;2023-03-05T12:56:21;5.25;;;2.45;;
59728;SDS011;45588;51.598;5.618;2023-03-05T12:58:50;7.75;;;3.67;;
59728;SDS011;45588;51.598;5.618;2023-03-05T13:01:22;4.15;;;2.30;;
59728;SDS011;45588;51.598;5.618;2023-03-05T13:03:52;3.17;;;2.20;;
59728;SDS011;45588;51.598;5.618;2023-03-05T13:06:24;5.40;;;3.70;;
59728;SDS011;45588;51.598;5.618;2023-03-05T13:08:57;4.13;;;2.47;;
59728;SDS011;45588;51.598;5.618;2023-03-05T13:11:23;6.53;;;3.45;;
59728;SDS011;45588;51.598;5.618;2023-03-05T13:13:49;2.85;;;2.25;;
59728;SDS011;45588;51.598;5.618;2023-03-05T13:16:18;3.97;;;3.03;;
59728;SDS011;45588;51.598;5.618;2023-03-05T13:18:44;3.67;;;2.17;;
59728;SDS011;45588;51.598;5.618;2023-03-05T13:21:14;5.60;;;2.70;;
59728;SDS011;45588;51.598;5.618;2023-03-05T13:23:47;3.92;;;2.55;;
59728;SDS011;45588;51.598;5.618;2023-03-05T13:28:39;4.30;;;2.95;;
59728;SDS011;45588;51.598;5.618;2023-03-05T13:31:15;3.55;;;2.25;;
59728;SDS011;45588;51.598;5.618;2023-03-05T13:33:48;2.65;;;2.03;;
59728;SDS011;45588;51.598;5.618;2023-03-05T13:36:17;6.22;;;1.95;;
59728;SDS011;45588;51.598;5.618;2023-03-05T13:38:43;2.77;;;2.27;;
59728;SDS011;45588;51.598;5.618;2023-03-05T13:43:43;3.70;;;2.42;;
59728;SDS011;45588;51.598;5.618;2023-03-05T13:46:09;2.83;;;1.70;;
59728;SDS011;45588;51.598;5.618;2023-03-05T13:48:34;4.83;;;2.30;;
59728;SDS011;45588;51.598;5.618;2023-03-05T13:50:59;1.67;;;1.30;;
59728;SDS011;45588;51.598;5.618;2023-03-05T13:53:28;7.37;;;2.47;;
59728;SDS011;45588;51.598;5.618;2023-03-05T13:56:01;2.22;;;1.35;;
59728;SDS011;45588;51.598;5.618;2023-03-05T14:01:24;3.40;;;2.10;;
59728;SDS011;45588;51.598;5.618;2023-03-05T14:03:50;3.40;;;1.58;;
59728;SDS011;45588;51.598;5.618;2023-03-05T14:06:17;3.78;;;1.60;;
59728;SDS011;45588;51.598;5.618;2023-03-05T14:08:47;4.22;;;1.73;;
59728;SDS011;45588;51.598;5.618;2023-03-05T14:11:14;2.80;;;1.80;;
59728;SDS011;45588;51.598;5.618;2023-03-05T14:13:39;1.55;;;1.45;;
59728;SDS011;45588;51.598;5.618;2023-03-05T14:16:05;3.35;;;1.10;;
59728;SDS011;45588;51.598;5.618;2023-03-05T14:18:32;2.33;;;1.00;;
59728;SDS011;45588;51.598;5.618;2023-03-05T14:23:24;3.63;;;1.80;;
59728;SDS011;45588;51.598;5.618;2023-03-05T14:25:50;2.85;;;2.03;;
59728;SDS011;45588;51.598;5.618;2023-03-05T14:30:43;1.95;;;1.50;;
59728;SDS011;45588;51.598;5.618;2023-03-05T14:33:09;5.10;;;2.30;;
59728;SDS011;45588;51.598;5.618;2023-03-05T14:35:34;2.50;;;1.23;;
59728;SDS011;45588;51.598;5.618;2023-03-05T14:38:00;3.55;;;2.08;;
59728;SDS011;45588;51.598;5.618;2023-03-05T14:40:27;3.40;;;2.30;;
59728;SDS011;45588;51.598;5.618;2023-03-05T14:43:10;2.13;;;1.92;;
59728;SDS011;45588;51.598;5.618;2023-03-05T14:45:36;3.55;;;1.90;;
59728;SDS011;45588;51.598;5.618;2023-03-05T14:48:03;4.18;;;1.67;;
59728;SDS011;45588;51.598;5.618;2023-03-05T14:50:30;1.80;;;1.65;;
59728;SDS011;45588;51.598;5.618;2023-03-05T14:53:00;2.53;;;1.33;;
59728;SDS011;45588;51.598;5.618;2023-03-05T14:55:27;3.27;;;2.00;;
59728;SDS011;45588;51.598;5.618;2023-03-05T14:57:56;6.18;;;3.65;;
59728;SDS011;45588;51.598;5.618;2023-03-05T15:00:24;3.67;;;1.92;;
59728;SDS011;45588;51.598;5.618;2023-03-05T15:02:50;2.90;;;2.15;;
59728;SDS011;45588;51.598;5.618;2023-03-05T15:05:16;3.15;;;1.67;;
59728;SDS011;45588;51.598;5.618;2023-03-05T15:07:42;4.65;;;2.75;;
59728;SDS011;45588;51.598;5.618;2023-03-05T15:10:08;2.28;;;1.77;;
59728;SDS011;45588;51.598;5.618;2023-03-05T15:12:33;1.30;;;1.20;;
59728;SDS011;45588;51.598;5.618;2023-03-05T15:14:58;3.92;;;2.17;;
59728;SDS011;45588;51.598;5.618;2023-03-05T15:19:52;2.80;;;1.65;;
59728;SDS011;45588;51.598;5.618;2023-03-05T15:22:17;3.30;;;1.50;;
59728;SDS011;45588;51.598;5.618;2023-03-05T15:24:43;1.60;;;1.17;;
59728;SDS011;45588;51.598;5.618;2023-03-05T15:27:08;2.13;;;1.90;;
59728;SDS011;45588;51.598;5.618;2023-03-05T15:29:33;2.53;;;1.33;;
59728;SDS011;45588;51.598;5.618;2023-03-05T15:31:59;3.75;;;1.85;;
59728;SDS011;45588;51.598;5.618;2023-03-05T15:34:26;4.25;;;1.52;;
59728;SDS011;45588;51.598;5.618;2023-03-05T15:36:51;3.58;;;2.13;;
59728;SDS011;45588;51.598;5.618;2023-03-05T15:39:16;3.65;;;2.60;;
59728;SDS011;45588;51.598;5.618;2023-03-05T15:41:41;3.38;;;1.60;;
59728;SDS011;45588;51.598;5.618;2023-03-05T15:44:06;5.47;;;2.17;;
59728;SDS011;45588;51.598;5.618;2023-03-05T15:46:33;5.20;;;2.95;;
59728;SDS011;45588;51.598;5.618;2023-03-05T15:48:58;2.40;;;1.60;;
59728;SDS011;45588;51.598;5.618;2023-03-05T15:51:23;3.17;;;1.83;;
59728;SDS011;45588;51.598;5.618;2023-03-05T15:53:49;4.05;;;2.80;;
59728;SDS011;45588;51.598;5.618;2023-03-05T15:56:15;1.27;;;1.17;;
59728;SDS011;45588;51.598;5.618;2023-03-05T15:58:40;3.55;;;1.35;;
59728;SDS011;45588;51.598;5.618;2023-03-05T16:01:07;2.45;;;1.65;;
59728;SDS011;45588;51.598;5.618;2023-03-05T16:03:32;5.40;;;1.40;;